Time;durP1;ratioP1;P1;durP2;ratioP2;P2;SDS_P1;SDS_P2;PMS_P1;PMS_P2;Temp;Humidity;BMP_temperature;BMP_pressure;BME280_temperature;BME280_humidity;BME280_pressure;Samples;Min_cycle;Max_cycle;Signal;HPM_P1;HPM_P2
2021/01/01 00:02:01;;;;;;;3.63;1.92;;;;;;;;;;4981940;28;20033;-63
2021/01/01 00:04:30;;;;;;;2.03;1.42;;;;;;;;;;4977913;28;20442;-63
2021/01/01 00:07:01;;;;;;;0.88;0.52;;;;;;;;;;4981698;28;20601;-63
2021/01/01 00:09:29;;;;;;;0.25;0.25;;;;;;;;;;4960470;28;20042;-63
2021/01/01 00:11:57;;;;;;;1.45;1.35;;;;;;;;;;4991274;28;20119;-63
2021/01/01 00:14:22;;;;;;;2.50;2.38;;;;;;;;;;4979853;28;20469;-61
2021/01/01 00:16:48;;;;;;;0.88;0.88;;;;;;;;;;4979125;28;20242;-62
2021/01/01 00:19:13;;;;;;;1.08;1.02;;;;;;;;;;4977892;28;21029;-62
2021/01/01 00:21:44;;;;;;;1.00;1.00;;;;;;;;;;4989264;28;20042;-61
2021/01/01 00:24:12;;;;;;;0.68;0.68;;;;;;;;;;4996503;28;20052;-62
2021/01/01 00:26:43;;;;;;;1.30;1.25;;;;;;;;;;4976812;28;20273;-62
2021/01/01 00:29:08;;;;;;;0.43;0.43;;;;;;;;;;4997681;28;20120;-62
2021/01/01 00:31:36;;;;;;;0.20;0.20;;;;;;;;;;4988575;28;20301;-62
2021/01/01 00:34:04;;;;;;;0.90;0.90;;;;;;;;;;4986013;28;20100;-62
2021/01/01 00:36:34;;;;;;;0.35;0.35;;;;;;;;;;4982787;28;20505;-63
2021/01/01 00:39:02;;;;;;;2.85;2.58;;;;;;;;;;5000805;28;20096;-63
2021/01/01 00:41:30;;;;;;;1.70;1.65;;;;;;;;;;4985085;28;20535;-63
2021/01/01 00:44:02;;;;;;;0.35;0.35;;;;;;;;;;4987051;28;20052;-64
2021/01/01 00:46:28;;;;;;;1.85;1.13;;;;;;;;;;4984655;28;20438;-63
2021/01/01 00:48:59;;;;;;;3.40;1.77;;;;;;;;;;4985300;28;20087;-63
2021/01/01 00:51:25;;;;;;;0.38;0.38;;;;;;;;;;4986358;28;20026;-64
2021/01/01 00:53:54;;;;;;;0.35;0.35;;;;;;;;;;4985059;28;20026;-64
2021/01/01 00:56:25;;;;;;;0.00;0.00;;;;;;;;;;4982624;28;20646;-62
2021/01/01 00:58:53;;;;;;;0.68;0.63;;;;;;;;;;4985293;28;20046;-63
2021/01/01 01:01:26;;;;;;;0.28;0.28;;;;;;;;;;4983732;28;20449;-63
2021/01/01 01:03:55;;;;;;;0.60;0.60;;;;;;;;;;4986919;28;20797;-65
2021/01/01 01:06:24;;;;;;;1.92;1.83;;;;;;;;;;4983778;28;20026;-65
2021/01/01 01:08:49;;;;;;;1.75;1.48;;;;;;;;;;4982421;28;20038;-63
2021/01/01 01:11:18;;;;;;;2.05;1.30;;;;;;;;;;4984969;28;20026;-63
2021/01/01 01:13:44;;;;;;;0.70;0.70;;;;;;;;;;4987039;28;20538;-63
2021/01/01 01:16:09;;;;;;;1.10;0.68;;;;;;;;;;4981448;28;20045;-64
2021/01/01 01:18:37;;;;;;;0.05;0.05;;;;;;;;;;4980976;28;20046;-62
2021/01/01 01:21:05;;;;;;;1.38;1.27;;;;;;;;;;4980092;28;20813;-64
2021/01/01 01:23:33;;;;;;;0.10;0.10;;;;;;;;;;4981094;28;20034;-66
2021/01/01 01:26:04;;;;;;;0.50;0.50;;;;;;;;;;4982087;28;20030;-63
2021/01/01 01:28:29;;;;;;;0.63;0.63;;;;;;;;;;4993727;28;20048;-64
2021/01/01 01:30:59;;;;;;;0.73;0.73;;;;;;;;;;4979049;28;20124;-65
2021/01/01 01:33:27;;;;;;;0.35;0.35;;;;;;;;;;4998506;28;20029;-64
2021/01/01 01:35:58;;;;;;;0.82;0.82;;;;;;;;;;4997587;28;20030;-65
2021/01/01 01:38:26;;;;;;;1.90;1.20;;;;;;;;;;4981941;28;20038;-64
2021/01/01 01:40:53;;;;;;;0.10;0.10;;;;;;;;;;4995569;28;20025;-64
2021/01/01 01:43:22;;;;;;;0.93;0.93;;;;;;;;;;4982800;28;20065;-65
2021/01/01 01:45:55;;;;;;;0.08;0.08;;;;;;;;;;4997294;28;20670;-65
2021/01/01 01:48:30;;;;;;;0.90;0.85;;;;;;;;;;4984220;28;20037;-66
2021/01/01 01:50:59;;;;;;;0.08;0.08;;;;;;;;;;4985297;28;20038;-65
2021/01/01 01:53:25;;;;;;;0.95;0.95;;;;;;;;;;4996464;28;20040;-65
2021/01/01 01:55:52;;;;;;;0.43;0.43;;;;;;;;;;4984718;28;20032;-65
2021/01/01 01:58:23;;;;;;;0.38;0.38;;;;;;;;;;4981992;28;20084;-64
2021/01/01 02:01:04;;;;;;;0.00;0.00;;;;;;;;;;4982820;28;20080;-65
2021/01/01 02:03:35;;;;;;;1.40;1.15;;;;;;;;;;4982532;28;20180;-65
2021/01/01 02:06:01;;;;;;;0.20;0.20;;;;;;;;;;4995599;28;21507;-64
2021/01/01 02:08:26;;;;;;;2.72;2.53;;;;;;;;;;4982562;28;20034;-65
2021/01/01 02:11:02;;;;;;;0.32;0.30;;;;;;;;;;4978743;28;20030;-65
2021/01/01 02:13:33;;;;;;;1.67;1.58;;;;;;;;;;4978844;28;20774;-64
2021/01/01 02:15:59;;;;;;;1.90;0.65;;;;;;;;;;4982083;28;20454;-65
2021/01/01 02:18:40;;;;;;;0.45;0.45;;;;;;;;;;4977034;28;21724;-65
2021/01/01 02:21:07;;;;;;;0.80;0.80;;;;;;;;;;4973476;28;20108;-64
2021/01/01 02:23:37;;;;;;;0.32;0.32;;;;;;;;;;4998089;28;20045;-65
2021/01/01 02:26:06;;;;;;;0.00;0.00;;;;;;;;;;4982882;28;20273;-65
2021/01/01 02:28:34;;;;;;;0.63;0.63;;;;;;;;;;4979823;28;20559;-64
2021/01/01 02:30:59;;;;;;;1.00;0.80;;;;;;;;;;4979151;28;20124;-65
2021/01/01 02:33:27;;;;;;;0.00;0.00;;;;;;;;;;4982173;28;20036;-65
2021/01/01 02:35:55;;;;;;;0.25;0.25;;;;;;;;;;4982938;28;20117;-65
2021/01/01 02:38:23;;;;;;;1.23;1.13;;;;;;;;;;4974690;28;20421;-65
2021/01/01 02:40:48;;;;;;;0.00;0.00;;;;;;;;;;4981226;28;20370;-65
2021/01/01 02:43:20;;;;;;;0.10;0.10;;;;;;;;;;4980611;28;20194;-65
2021/01/01 02:45:50;;;;;;;0.00;0.00;;;;;;;;;;4976806;28;20097;-66
2021/01/01 02:48:20;;;;;;;0.20;0.20;;;;;;;;;;4979809;28;20233;-65
2021/01/01 02:50:46;;;;;;;0.63;0.63;;;;;;;;;;4979716;28;20032;-66
2021/01/01 02:53:12;;;;;;;0.45;0.45;;;;;;;;;;4977376;28;20136;-65
2021/01/01 02:55:40;;;;;;;0.00;0.00;;;;;;;;;;4995756;28;20030;-65
2021/01/01 02:58:05;;;;;;;0.00;0.00;;;;;;;;;;4992888;28;20042;-64
2021/01/01 03:00:36;;;;;;;0.20;0.20;;;;;;;;;;4983237;28;20332;-65
2021/01/01 03:03:07;;;;;;;0.22;0.22;;;;;;;;;;4981938;28;20534;-66
2021/01/01 03:05:37;;;;;;;0.00;0.00;;;;;;;;;;4993035;28;20069;-64
2021/01/01 03:08:05;;;;;;;0.00;0.00;;;;;;;;;;4971036;28;20066;-65
2021/01/01 03:10:35;;;;;;;0.00;0.00;;;;;;;;;;4965758;28;20513;-64
2021/01/01 03:13:01;;;;;;;0.20;0.20;;;;;;;;;;4960421;28;20026;-64
2021/01/01 03:15:28;;;;;;;0.05;0.05;;;;;;;;;;4982692;28;20125;-64
2021/01/01 03:18:01;;;;;;;0.45;0.45;;;;;;;;;;4978864;28;20751;-64
2021/01/01 03:20:27;;;;;;;1.10;1.00;;;;;;;;;;4983486;28;20426;-63
2021/01/01 03:22:56;;;;;;;0.00;0.00;;;;;;;;;;4979749;28;20040;-63
2021/01/01 03:25:22;;;;;;;2.55;0.75;;;;;;;;;;4981961;28;20125;-64
2021/01/01 03:27:50;;;;;;;0.90;0.90;;;;;;;;;;4980395;28;20409;-63
2021/01/01 03:30:18;;;;;;;0.05;0.05;;;;;;;;;;4979018;28;20279;-64
2021/01/01 03:32:43;;;;;;;0.25;0.25;;;;;;;;;;4980319;28;20360;-63
2021/01/01 03:35:11;;;;;;;0.00;0.00;;;;;;;;;;4978510;28;20052;-63
2021/01/01 03:37:39;;;;;;;0.47;0.47;;;;;;;;;;4984557;28;20034;-62
2021/01/01 03:40:05;;;;;;;0.00;0.00;;;;;;;;;;4979922;28;20132;-62
2021/01/01 03:42:35;;;;;;;0.00;0.00;;;;;;;;;;4980146;28;20906;-62
2021/01/01 03:45:03;;;;;;;0.00;0.00;;;;;;;;;;4984573;28;20055;-63
2021/01/01 03:47:31;;;;;;;0.00;0.00;;;;;;;;;;4983276;28;20049;-62
2021/01/01 03:49:59;;;;;;;0.80;0.80;;;;;;;;;;4986526;28;20092;-64
2021/01/01 03:52:25;;;;;;;0.00;0.00;;;;;;;;;;4965865;28;20118;-64
2021/01/01 03:54:52;;;;;;;0.00;0.00;;;;;;;;;;4963956;28;20038;-63
2021/01/01 03:57:20;;;;;;;2.20;0.75;;;;;;;;;;4977224;28;20041;-64
2021/01/01 03:59:48;;;;;;;0.52;0.52;;;;;;;;;;4961138;28;20565;-63
2021/01/01 04:02:17;;;;;;;0.17;0.17;;;;;;;;;;4961608;28;20195;-62
2021/01/01 04:04:45;;;;;;;0.00;0.00;;;;;;;;;;4945200;28;20041;-63
2021/01/01 04:07:18;;;;;;;0.82;0.82;;;;;;;;;;4943389;28;20554;-63
2021/01/01 04:10:17;;;;;;;0.30;0.30;;;;;;;;;;4959577;28;20124;-62
2021/01/01 04:12:47;;;;;;;1.08;1.08;;;;;;;;;;4951142;28;20397;-65
2021/01/01 04:15:13;;;;;;;0.00;0.00;;;;;;;;;;4935065;28;20530;-62
2021/01/01 04:17:39;;;;;;;0.17;0.17;;;;;;;;;;4959273;28;20089;-64
2021/01/01 04:20:07;;;;;;;0.00;0.00;;;;;;;;;;4941014;28;20486;-63
2021/01/01 04:22:35;;;;;;;1.15;1.05;;;;;;;;;;4954865;28;20044;-63
2021/01/01 04:25:03;;;;;;;0.50;0.50;;;;;;;;;;4956661;28;20042;-63
2021/01/01 04:27:30;;;;;;;0.30;0.30;;;;;;;;;;4959849;28;20828;-64
2021/01/01 04:29:56;;;;;;;3.03;1.25;;;;;;;;;;4956861;28;20065;-63
2021/01/01 04:32:23;;;;;;;0.10;0.10;;;;;;;;;;4940308;28;20034;-64
2021/01/01 04:34:49;;;;;;;0.25;0.25;;;;;;;;;;4956952;28;20112;-65
2021/01/01 04:37:15;;;;;;;0.00;0.00;;;;;;;;;;4957156;28;20034;-63
2021/01/01 04:39:40;;;;;;;0.10;0.10;;;;;;;;;;4942143;28;20772;-62
2021/01/01 04:42:10;;;;;;;0.00;0.00;;;;;;;;;;4956680;28;20034;-64
2021/01/01 04:44:41;;;;;;;0.60;0.60;;;;;;;;;;4944800;28;20430;-64
2021/01/01 04:47:27;;;;;;;0.00;0.00;;;;;;;;;;4961698;28;20081;-65
2021/01/01 04:49:55;;;;;;;0.00;0.00;;;;;;;;;;4959817;28;20942;-64
2021/01/01 04:52:22;;;;;;;0.00;0.00;;;;;;;;;;4958175;28;20682;-63
2021/01/01 04:54:50;;;;;;;0.00;0.00;;;;;;;;;;4955878;28;20089;-66
2021/01/01 04:57:19;;;;;;;0.00;0.00;;;;;;;;;;4936182;28;20030;-64
2021/01/01 04:59:47;;;;;;;0.25;0.20;;;;;;;;;;4973527;28;20042;-63
2021/01/01 05:02:15;;;;;;;0.57;0.38;;;;;;;;;;4992694;28;20270;-64
2021/01/01 05:04:44;;;;;;;0.00;0.00;;;;;;;;;;4977328;28;20338;-64
2021/01/01 05:07:20;;;;;;;0.10;0.10;;;;;;;;;;4980739;28;20240;-64
2021/01/01 05:09:50;;;;;;;0.00;0.00;;;;;;;;;;4977373;28;20037;-65
2021/01/01 05:12:18;;;;;;;0.00;0.00;;;;;;;;;;4976507;28;20125;-65
2021/01/01 05:14:43;;;;;;;0.00;0.00;;;;;;;;;;4978512;28;20144;-63
2021/01/01 05:17:11;;;;;;;0.32;0.32;;;;;;;;;;4978046;28;20175;-64
2021/01/01 05:19:40;;;;;;;0.00;0.00;;;;;;;;;;4981591;28;20508;-63
2021/01/01 05:22:09;;;;;;;0.00;0.00;;;;;;;;;;4979598;28;20046;-64
2021/01/01 05:24:41;;;;;;;0.00;0.00;;;;;;;;;;4995849;28;20026;-65
2021/01/01 05:27:13;;;;;;;0.32;0.32;;;;;;;;;;4979611;28;20550;-64
2021/01/01 05:29:41;;;;;;;0.00;0.00;;;;;;;;;;4992617;28;20549;-63
2021/01/01 05:32:08;;;;;;;0.20;0.20;;;;;;;;;;4995692;28;20176;-64
2021/01/01 05:34:46;;;;;;;0.52;0.52;;;;;;;;;;4973682;28;20036;-64
2021/01/01 05:37:12;;;;;;;0.00;0.00;;;;;;;;;;4979234;28;20091;-64
2021/01/01 05:39:38;;;;;;;0.03;0.03;;;;;;;;;;4980029;28;20183;-65
2021/01/01 05:42:03;;;;;;;1.33;1.23;;;;;;;;;;5000101;28;20057;-65
2021/01/01 05:44:34;;;;;;;0.55;0.55;;;;;;;;;;4983424;28;20034;-64
2021/01/01 05:46:59;;;;;;;1.90;1.08;;;;;;;;;;4984043;28;20436;-64
2021/01/01 05:49:35;;;;;;;1.40;1.25;;;;;;;;;;4983340;28;20058;-65
2021/01/01 05:52:10;;;;;;;0.00;0.00;;;;;;;;;;4981754;28;20072;-65
2021/01/01 05:54:35;;;;;;;;;;;;;;;;;;4980986;28;20266;-64
2021/01/01 05:57:04;;;;;;;0.00;0.00;;;;;;;;;;4995467;28;21320;-64
2021/01/01 06:02:54;;;;;;;0.00;0.00;;;;;;;;;;4978074;28;20041;-64
2021/01/01 06:05:24;;;;;;;0.20;0.20;;;;;;;;;;4985387;28;20111;-65
2021/01/01 06:07:57;;;;;;;1.45;1.35;;;;;;;;;;4979515;28;20449;-65
2021/01/01 06:10:23;;;;;;;0.00;0.00;;;;;;;;;;4984321;28;20140;-66
2021/01/01 06:12:52;;;;;;;0.00;0.00;;;;;;;;;;4980319;28;20036;-65
2021/01/01 06:15:22;;;;;;;1.25;1.15;;;;;;;;;;4981616;28;20053;-65
2021/01/01 06:17:51;;;;;;;0.03;0.03;;;;;;;;;;4978726;28;20037;-64
2021/01/01 06:20:20;;;;;;;0.30;0.30;;;;;;;;;;4975224;28;20522;-65
2021/01/01 06:23:07;;;;;;;0.75;0.75;;;;;;;;;;4968537;28;20762;-65
2021/01/01 06:25:38;;;;;;;0.00;0.00;;;;;;;;;;4972621;28;20041;-65
2021/01/01 06:28:06;;;;;;;0.15;0.15;;;;;;;;;;4978179;28;20042;-64
2021/01/01 06:30:32;;;;;;;0.00;0.00;;;;;;;;;;4996411;28;20022;-66
2021/01/01 06:33:06;;;;;;;0.00;0.00;;;;;;;;;;4974871;28;20103;-63
2021/01/01 06:35:40;;;;;;;0.60;0.60;;;;;;;;;;4981812;28;20022;-65
2021/01/01 06:38:09;;;;;;;0.00;0.00;;;;;;;;;;4981403;28;20429;-64
2021/01/01 06:40:35;;;;;;;0.00;0.00;;;;;;;;;;4981190;28;20265;-65
2021/01/01 06:43:08;;;;;;;0.03;0.03;;;;;;;;;;4993238;28;20366;-65
2021/01/01 06:45:41;;;;;;;0.00;0.00;;;;;;;;;;4985165;28;20587;-66
2021/01/01 06:48:11;;;;;;;0.00;0.00;;;;;;;;;;4997359;28;20078;-65
2021/01/01 06:50:41;;;;;;;0.00;0.00;;;;;;;;;;4992840;28;20034;-65
2021/01/01 06:53:11;;;;;;;0.85;0.85;;;;;;;;;;4990493;28;20738;-64
2021/01/01 06:55:37;;;;;;;4.38;2.47;;;;;;;;;;4976995;28;20289;-64
2021/01/01 06:58:03;;;;;;;0.00;0.00;;;;;;;;;;4994635;28;20493;-64
2021/01/01 07:00:44;;;;;;;0.65;0.65;;;;;;;;;;4978947;28;20058;-65
2021/01/01 07:03:27;;;;;;;0.00;0.00;;;;;;;;;;4980605;28;20045;-63
2021/01/01 07:05:56;;;;;;;0.45;0.45;;;;;;;;;;4998198;28;20203;-64
2021/01/01 07:08:42;;;;;;;0.00;0.00;;;;;;;;;;4976602;28;20189;-64
2021/01/01 07:11:17;;;;;;;0.00;0.00;;;;;;;;;;4976101;28;20088;-64
2021/01/01 07:13:43;;;;;;;;;;;;;;;;;;4994757;28;20288;-65
2021/01/01 07:16:11;;;;;;;0.00;0.00;;;;;;;;;;4980705;28;19956;-65
2021/01/01 07:18:36;;;;;;;0.90;0.88;;;;;;;;;;4979707;28;20703;-65
2021/01/01 07:21:05;;;;;;;0.00;0.00;;;;;;;;;;4993888;28;20119;-65
2021/01/01 07:23:31;;;;;;;0.00;0.00;;;;;;;;;;4982370;28;20473;-66
2021/01/01 07:25:57;;;;;;;0.00;0.00;;;;;;;;;;4979366;28;20113;-65
2021/01/01 07:28:23;;;;;;;0.00;0.00;;;;;;;;;;4977297;28;21947;-65
2021/01/01 07:30:52;;;;;;;0.00;0.00;;;;;;;;;;4996383;28;20087;-66
2021/01/01 07:33:28;;;;;;;0.00;0.00;;;;;;;;;;4974788;28;20042;-65
2021/01/01 07:35:58;;;;;;;0.10;0.10;;;;;;;;;;4976279;28;20048;-65
2021/01/01 07:38:24;;;;;;;0.00;0.00;;;;;;;;;;4993045;28;20839;-65
2021/01/01 07:40:50;;;;;;;1.00;1.00;;;;;;;;;;4977287;28;20037;-65
2021/01/01 07:43:16;;;;;;;0.00;0.00;;;;;;;;;;4979986;28;20540;-64
2021/01/01 07:45:42;;;;;;;0.10;0.10;;;;;;;;;;4997354;28;20375;-65
2021/01/01 07:48:08;;;;;;;0.00;0.00;;;;;;;;;;4981544;28;20037;-65
2021/01/01 07:50:34;;;;;;;0.00;0.00;;;;;;;;;;4977795;28;20390;-65
2021/01/01 07:53:04;;;;;;;0.00;0.00;;;;;;;;;;4972187;28;20344;-64
2021/01/01 07:55:32;;;;;;;1.00;0.50;;;;;;;;;;4971844;28;20393;-64
2021/01/01 07:58:04;;;;;;;0.00;0.00;;;;;;;;;;4979757;28;20042;-63
2021/01/01 08:00:30;;;;;;;0.00;0.00;;;;;;;;;;4978404;28;20040;-65
2021/01/01 08:02:55;;;;;;;0.00;0.00;;;;;;;;;;4997723;28;20034;-65
2021/01/01 08:05:21;;;;;;;0.00;0.00;;;;;;;;;;4997773;28;20494;-65
2021/01/01 08:07:47;;;;;;;0.25;0.25;;;;;;;;;;4980580;28;20320;-64
2021/01/01 08:10:12;;;;;;;0.00;0.00;;;;;;;;;;4983757;28;21626;-63
2021/01/01 08:12:47;;;;;;;0.03;0.03;;;;;;;;;;4977647;28;20026;-65
2021/01/01 08:15:12;;;;;;;0.00;0.00;;;;;;;;;;4996225;28;20026;-64
2021/01/01 08:17:42;;;;;;;0.17;0.17;;;;;;;;;;4977598;28;20037;-64
2021/01/01 08:20:19;;;;;;;0.00;0.00;;;;;;;;;;4981333;28;20041;-64
2021/01/01 08:22:49;;;;;;;0.00;0.00;;;;;;;;;;4982066;28;20034;-64
2021/01/01 08:25:16;;;;;;;0.57;0.38;;;;;;;;;;4980837;28;20121;-65
2021/01/01 08:27:45;;;;;;;0.38;0.38;;;;;;;;;;4980547;28;20523;-63
2021/01/01 08:30:11;;;;;;;0.00;0.00;;;;;;;;;;4985213;28;20737;-63
2021/01/01 08:32:37;;;;;;;0.00;0.00;;;;;;;;;;4977069;28;20029;-63
2021/01/01 08:35:08;;;;;;;0.00;0.00;;;;;;;;;;4978252;28;20627;-64
2021/01/01 08:37:38;;;;;;;0.00;0.00;;;;;;;;;;4995579;28;20620;-63
2021/01/01 08:40:07;;;;;;;0.00;0.00;;;;;;;;;;4979907;28;20061;-63
2021/01/01 08:42:35;;;;;;;0.00;0.00;;;;;;;;;;4983716;28;20148;-63
2021/01/01 08:45:08;;;;;;;0.00;0.00;;;;;;;;;;4995341;28;20038;-62
2021/01/01 08:47:39;;;;;;;0.00;0.00;;;;;;;;;;4981729;28;20025;-63
2021/01/01 08:50:18;;;;;;;0.40;0.40;;;;;;;;;;4988365;28;20034;-63
2021/01/01 08:52:45;;;;;;;0.00;0.00;;;;;;;;;;4997656;28;20539;-63
2021/01/01 08:55:12;;;;;;;0.00;0.00;;;;;;;;;;4999684;28;20038;-63
2021/01/01 08:57:40;;;;;;;2.00;0.85;;;;;;;;;;5000509;28;20094;-62
2021/01/01 09:00:07;;;;;;;0.00;0.00;;;;;;;;;;4977871;28;20045;-63
2021/01/01 09:02:33;;;;;;;0.00;0.00;;;;;;;;;;4985212;28;20378;-63
2021/01/01 09:05:01;;;;;;;0.20;0.20;;;;;;;;;;4984779;28;20096;-62
2021/01/01 09:07:26;;;;;;;0.00;0.00;;;;;;;;;;4984008;28;20038;-63
2021/01/01 09:09:57;;;;;;;0.00;0.00;;;;;;;;;;4981328;28;20132;-63
2021/01/01 09:12:25;;;;;;;0.77;0.77;;;;;;;;;;4966645;28;20053;-63
2021/01/01 09:14:52;;;;;;;0.00;0.00;;;;;;;;;;4985939;28;20071;-63
2021/01/01 09:17:23;;;;;;;0.00;0.00;;;;;;;;;;4984534;28;20061;-64
2021/01/01 09:20:08;;;;;;;0.00;0.00;;;;;;;;;;4984962;28;20034;-63
2021/01/01 09:22:34;;;;;;;0.00;0.00;;;;;;;;;;4976897;28;20058;-63
2021/01/01 09:25:20;;;;;;;0.00;0.00;;;;;;;;;;4969927;28;20033;-63
2021/01/01 09:27:49;;;;;;;0.00;0.00;;;;;;;;;;4962345;28;20050;-64
2021/01/01 09:30:16;;;;;;;0.20;0.20;;;;;;;;;;4979274;28;20458;-63
2021/01/01 09:32:46;;;;;;;0.00;0.00;;;;;;;;;;4987440;28;20021;-64
2021/01/01 09:35:13;;;;;;;0.00;0.00;;;;;;;;;;4959240;28;22109;-64
2021/01/01 09:37:44;;;;;;;0.20;0.20;;;;;;;;;;4984040;28;20105;-64
2021/01/01 09:43:45;;;;;;;0.00;0.00;;;;;;;;;;4979483;28;20564;-64
2021/01/01 09:46:11;;;;;;;0.10;0.10;;;;;;;;;;4973383;28;20281;-63
2021/01/01 09:48:36;;;;;;;0.00;0.00;;;;;;;;;;4983538;28;20053;-64
2021/01/01 09:51:02;;;;;;;1.25;0.90;;;;;;;;;;4965502;28;20641;-64
2021/01/01 09:53:29;;;;;;;0.00;0.00;;;;;;;;;;4983963;28;20033;-65
2021/01/01 09:55:55;;;;;;;0.25;0.25;;;;;;;;;;4984054;28;20061;-63
2021/01/01 09:58:21;;;;;;;0.00;0.00;;;;;;;;;;4963731;28;20065;-63
2021/01/01 10:00:49;;;;;;;0.30;0.30;;;;;;;;;;4981867;28;20445;-62
2021/01/01 10:03:14;;;;;;;0.00;0.00;;;;;;;;;;4981243;28;20038;-62
2021/01/01 10:05:40;;;;;;;0.00;0.00;;;;;;;;;;4982671;28;20120;-63
2021/01/01 10:08:06;;;;;;;0.30;0.30;;;;;;;;;;4982644;28;20057;-63
2021/01/01 10:10:33;;;;;;;0.15;0.15;;;;;;;;;;4966955;28;20042;-63
2021/01/01 10:12:59;;;;;;;0.00;0.00;;;;;;;;;;4990214;28;20054;-64
2021/01/01 10:15:25;;;;;;;0.10;0.10;;;;;;;;;;4983665;28;20044;-63
2021/01/01 10:17:50;;;;;;;0.28;0.28;;;;;;;;;;4986060;28;20584;-62
2021/01/01 10:20:16;;;;;;;0.60;0.60;;;;;;;;;;4958277;28;20049;-62
2021/01/01 10:22:41;;;;;;;0.00;0.00;;;;;;;;;;4979761;28;20034;-62
2021/01/01 10:25:19;;;;;;;0.00;0.00;;;;;;;;;;4981044;28;20600;-60
2021/01/01 10:27:44;;;;;;;1.08;0.80;;;;;;;;;;4981864;28;20058;-62
2021/01/01 10:30:10;;;;;;;0.00;0.00;;;;;;;;;;4983060;28;20620;-62
2021/01/01 10:32:36;;;;;;;0.00;0.00;;;;;;;;;;4963709;28;20026;-62
2021/01/01 10:35:07;;;;;;;0.20;0.20;;;;;;;;;;4983027;28;20045;-61
2021/01/01 10:37:34;;;;;;;0.47;0.17;;;;;;;;;;4983592;28;20041;-62
2021/01/01 10:39:59;;;;;;;0.10;0.10;;;;;;;;;;4989850;28;20064;-62
2021/01/01 10:42:35;;;;;;;0.00;0.00;;;;;;;;;;4982897;28;20438;-65
2021/01/01 10:45:00;;;;;;;0.00;0.00;;;;;;;;;;4964415;28;21691;-63
2021/01/01 10:47:30;;;;;;;0.00;0.00;;;;;;;;;;4974318;28;21986;-61
2021/01/01 10:49:58;;;;;;;0.20;0.20;;;;;;;;;;4976253;28;20030;-61
2021/01/01 10:52:27;;;;;;;0.00;0.00;;;;;;;;;;4980899;28;20037;-61
2021/01/01 10:58:28;;;;;;;0.00;0.00;;;;;;;;;;4983153;28;20087;-62
2021/01/01 11:00:56;;;;;;;0.00;0.00;;;;;;;;;;4974997;28;20057;-62
2021/01/01 11:03:23;;;;;;;0.00;0.00;;;;;;;;;;4979135;28;21011;-62
2021/01/01 11:05:52;;;;;;;0.00;0.00;;;;;;;;;;4986062;28;20184;-61
2021/01/01 11:08:22;;;;;;;0.00;0.00;;;;;;;;;;4981248;28;20052;-61
2021/01/01 11:10:50;;;;;;;0.00;0.00;;;;;;;;;;4983575;28;20068;-61
2021/01/01 11:13:16;;;;;;;0.17;0.17;;;;;;;;;;4982009;28;20034;-62
2021/01/01 12:19:56;;;;;;;0.00;0.00;;;;;;;;;;4977918;28;20063;-63
2021/01/01 12:22:26;;;;;;;0.00;0.00;;;;;;;;;;4980249;28;20034;-62
2021/01/01 12:25:01;;;;;;;0.10;0.10;;;;;;;;;;4960738;28;20034;-62
2021/01/01 12:27:35;;;;;;;0.00;0.00;;;;;;;;;;4983692;28;20038;-62
2021/01/01 12:30:05;;;;;;;0.00;0.00;;;;;;;;;;4981121;28;20030;-62
2021/01/01 12:32:33;;;;;;;0.00;0.00;;;;;;;;;;4977445;28;20053;-64
2021/01/01 12:35:01;;;;;;;0.00;0.00;;;;;;;;;;4975586;28;20117;-64
2021/01/01 12:37:27;;;;;;;0.00;0.00;;;;;;;;;;4980809;28;20474;-63
2021/01/01 12:39:54;;;;;;;0.10;0.10;;;;;;;;;;4982998;28;20054;-64
2021/01/01 12:42:25;;;;;;;0.00;0.00;;;;;;;;;;4980531;28;20561;-65
2021/01/01 12:44:51;;;;;;;0.00;0.00;;;;;;;;;;4973829;28;20096;-63
2021/01/01 12:47:21;;;;;;;0.70;0.55;;;;;;;;;;4983945;28;20030;-63
2021/01/01 12:49:49;;;;;;;1.30;0.43;;;;;;;;;;4983912;28;20029;-64
2021/01/01 12:52:15;;;;;;;0.32;0.32;;;;;;;;;;4979778;28;20026;-64
2021/01/01 12:54:42;;;;;;;0.00;0.00;;;;;;;;;;4978198;28;20048;-64
2021/01/01 12:57:07;;;;;;;0.00;0.00;;;;;;;;;;4970110;28;20030;-64
2021/01/01 12:59:33;;;;;;;0.20;0.20;;;;;;;;;;4980212;28;20041;-63
2021/01/01 13:01:59;;;;;;;0.08;0.08;;;;;;;;;;4982303;28;20367;-64
2021/01/01 13:04:29;;;;;;;0.70;0.35;;;;;;;;;;4984852;28;20389;-65
2021/01/01 13:06:54;;;;;;;0.03;0.03;;;;;;;;;;4984185;28;20681;-66
2021/01/01 13:09:21;;;;;;;0.40;0.40;;;;;;;;;;4980956;28;20042;-67
2021/01/01 13:11:47;;;;;;;0.00;0.00;;;;;;;;;;4985817;28;20209;-66
2021/01/01 13:14:13;;;;;;;0.00;0.00;;;;;;;;;;4980243;28;20636;-66
2021/01/01 13:16:44;;;;;;;0.00;0.00;;;;;;;;;;4981265;28;20368;-67
2021/01/01 13:19:16;;;;;;;0.00;0.00;;;;;;;;;;4963869;28;20397;-67
2021/01/01 13:21:42;;;;;;;0.00;0.00;;;;;;;;;;4978837;28;20132;-66
2021/01/01 13:24:10;;;;;;;0.10;0.10;;;;;;;;;;4981066;28;20791;-66
2021/01/01 13:26:38;;;;;;;0.20;0.20;;;;;;;;;;4979802;28;20042;-65
2021/01/01 13:29:04;;;;;;;0.00;0.00;;;;;;;;;;4986855;28;20061;-64
2021/01/01 13:31:34;;;;;;;0.00;0.00;;;;;;;;;;4968207;28;20149;-66
2021/01/01 13:34:05;;;;;;;0.00;0.00;;;;;;;;;;4979136;28;20041;-67
2021/01/01 13:36:33;;;;;;;0.15;0.15;;;;;;;;;;4982272;28;20030;-66
2021/01/01 13:39:04;;;;;;;0.00;0.00;;;;;;;;;;4981127;28;20599;-66
2021/01/01 13:41:29;;;;;;;0.28;0.15;;;;;;;;;;4966010;28;20052;-68
2021/01/01 13:43:58;;;;;;;0.00;0.00;;;;;;;;;;4986683;28;20577;-66
2021/01/01 13:46:24;;;;;;;0.47;0.47;;;;;;;;;;4981582;28;20109;-66
2021/01/01 13:48:52;;;;;;;0.00;0.00;;;;;;;;;;4985512;28;20599;-66
2021/01/01 13:51:48;;;;;;;0.00;0.00;;;;;;;;;;4985611;28;20077;-65
2021/01/01 13:54:13;;;;;;;0.00;0.00;;;;;;;;;;4979810;28;20449;-67
2021/01/01 13:56:38;;;;;;;0.32;0.32;;;;;;;;;;4983526;28;20022;-68
2021/01/01 13:59:04;;;;;;;0.00;0.00;;;;;;;;;;4975047;28;20093;-68
2021/01/01 14:01:30;;;;;;;0.00;0.00;;;;;;;;;;4961640;28;20038;-68
2021/01/01 14:03:56;;;;;;;0.00;0.00;;;;;;;;;;4969810;28;20046;-69
2021/01/01 14:06:32;;;;;;;0.00;0.00;;;;;;;;;;4968066;28;21625;-68
2021/01/01 14:09:00;;;;;;;0.00;0.00;;;;;;;;;;4965544;28;20063;-68
2021/01/01 14:11:29;;;;;;;0.00;0.00;;;;;;;;;;4967635;28;20044;-68
2021/01/01 14:13:57;;;;;;;0.00;0.00;;;;;;;;;;4968821;28;20758;-67
2021/01/01 14:16:25;;;;;;;0.00;0.00;;;;;;;;;;4966062;28;20027;-67
2021/01/01 14:18:53;;;;;;;0.00;0.00;;;;;;;;;;4961628;28;20410;-68
2021/01/01 14:21:30;;;;;;;0.00;0.00;;;;;;;;;;4961678;28;20041;-67
2021/01/01 14:23:58;;;;;;;0.00;0.00;;;;;;;;;;4963892;28;20038;-68
2021/01/01 14:26:23;;;;;;;0.00;0.00;;;;;;;;;;4968811;28;20077;-67
2021/01/01 14:28:48;;;;;;;0.00;0.00;;;;;;;;;;4962510;28;20413;-68
2021/01/01 14:31:14;;;;;;;0.00;0.00;;;;;;;;;;4966317;28;20289;-68
2021/01/01 14:33:40;;;;;;;0.22;0.22;;;;;;;;;;4962558;28;20467;-68
2021/01/01 14:36:10;;;;;;;0.00;0.00;;;;;;;;;;4970174;28;20040;-67
2021/01/01 14:38:39;;;;;;;0.00;0.00;;;;;;;;;;4969475;28;20045;-66
2021/01/01 14:41:04;;;;;;;0.38;0.38;;;;;;;;;;4965846;28;20116;-68
2021/01/01 14:43:32;;;;;;;0.00;0.00;;;;;;;;;;4967933;28;20734;-68
2021/01/01 14:45:59;;;;;;;0.00;0.00;;;;;;;;;;4965834;28;20038;-68
2021/01/01 14:48:29;;;;;;;1.77;1.65;;;;;;;;;;4969057;28;20038;-69
2021/01/01 14:51:00;;;;;;;0.00;0.00;;;;;;;;;;4949676;28;20029;-69
2021/01/01 14:53:26;;;;;;;0.22;0.22;;;;;;;;;;4969400;28;20034;-68
2021/01/01 14:55:54;;;;;;;0.00;0.00;;;;;;;;;;4961128;28;20026;-68
2021/01/01 14:58:20;;;;;;;0.00;0.00;;;;;;;;;;4973589;28;20052;-68
2021/01/01 15:00:46;;;;;;;0.28;0.28;;;;;;;;;;4978023;28;20030;-70
2021/01/01 15:03:14;;;;;;;0.00;0.00;;;;;;;;;;4984099;28;20022;-68
2021/01/01 15:05:39;;;;;;;0.00;0.00;;;;;;;;;;4963437;28;20029;-69
2021/01/01 15:08:05;;;;;;;3.63;0.68;;;;;;;;;;4983406;28;20096;-68
2021/01/01 15:10:33;;;;;;;0.00;0.00;;;;;;;;;;4967364;28;20040;-69
2021/01/01 15:12:59;;;;;;;0.00;0.00;;;;;;;;;;4984079;28;20762;-69
2021/01/01 15:15:27;;;;;;;0.00;0.00;;;;;;;;;;4985308;28;20376;-69
2021/01/01 15:17:54;;;;;;;0.00;0.00;;;;;;;;;;4983555;28;20273;-69
2021/01/01 15:20:27;;;;;;;0.00;0.00;;;;;;;;;;4983052;28;20033;-69
2021/01/01 15:22:52;;;;;;;0.20;0.20;;;;;;;;;;4984304;28;20033;-68
2021/01/01 15:25:18;;;;;;;0.00;0.00;;;;;;;;;;4982991;28;20026;-69
2021/01/01 15:27:47;;;;;;;0.20;0.20;;;;;;;;;;4971662;28;20529;-70
2021/01/01 15:30:18;;;;;;;0.00;0.00;;;;;;;;;;4981372;28;20042;-69
2021/01/01 15:32:47;;;;;;;0.00;0.00;;;;;;;;;;4983635;28;20061;-70
2021/01/01 15:35:13;;;;;;;0.15;0.15;;;;;;;;;;4950753;28;20703;-70
2021/01/01 15:37:42;;;;;;;0.00;0.00;;;;;;;;;;4983452;28;22003;-70
2021/01/01 15:40:08;;;;;;;0.20;0.20;;;;;;;;;;4982737;28;20021;-70
2021/01/01 15:42:36;;;;;;;0.85;0.75;;;;;;;;;;4984602;28;20189;-71
2021/01/01 15:45:03;;;;;;;0.40;0.40;;;;;;;;;;4979390;28;20292;-70
2021/01/01 15:47:34;;;;;;;0.00;0.00;;;;;;;;;;4970879;28;20064;-70
2021/01/01 15:50:00;;;;;;;0.20;0.20;;;;;;;;;;4968255;28;20091;-70
2021/01/01 15:52:25;;;;;;;0.00;0.00;;;;;;;;;;4947720;28;20453;-70
2021/01/01 15:54:55;;;;;;;0.00;0.00;;;;;;;;;;4976910;28;20072;-71
2021/01/01 15:57:23;;;;;;;0.00;0.00;;;;;;;;;;4961768;28;20031;-70
2021/01/01 15:59:51;;;;;;;0.00;0.00;;;;;;;;;;4967061;28;20050;-70
2021/01/01 16:02:16;;;;;;;0.25;0.25;;;;;;;;;;4981292;28;20040;-70
2021/01/01 16:04:43;;;;;;;0.00;0.00;;;;;;;;;;4982217;28;20030;-71
2021/01/01 16:07:08;;;;;;;0.65;0.13;;;;;;;;;;4977385;28;20263;-70